Observations for BARI PALESE MACCHIE, Italy (LIBD)

LIBD 160750Z 02014KT 350V050 5000 RA FEW020 SCT040 12/09 Q1021  
LIBD 160720Z VRB01KT 9999 VCSH SCT040 14/09 Q1020   
LIBD 160650Z VRB02KT 9999 SCT040 13/09 Q1020
LIBD 160620Z VRB03KT 9999 SCT040 12/08 Q1020
LIBD 160550Z VRB03KT 9999 SCT040 12/08 Q1020
LIBD 160520Z VRB02KT 9999 SCT040 12/07 Q1020
LIBD 160450Z VRB04KT 9999 FEW040 14/07 Q1020
LIBD 160420Z VRB01KT 9999 FEW045 12/07 Q1020
LIBD 160350Z VRB03KT 9999 FEW045 12/07 Q1020
LIBD 160320Z 29007KT 9999 SCT045 12/07 Q1020
LIBD 160250Z 28005KT 9999 SCT045 12/07 Q1020
LIBD 160220Z 28006KT CAVOK 12/07 Q1020  
LIBD 160150Z 28005KT 9999 FEW045 11/07 Q1020
LIBD 160120Z 27006KT 9999 FEW045 12/07 Q1020
LIBD 160050Z 27006KT CAVOK 12/07 Q1020  
LIBD 160020Z 28008KT CAVOK 12/07 Q1020  
LIBD 152350Z 29005KT CAVOK 12/07 Q1020  
LIBD 152320Z 29008KT CAVOK 12/07 Q1020  
LIBD 152250Z 29007KT CAVOK 12/08 Q1020  
LIBD 152220Z 28007KT CAVOK 12/08 Q1020  
LIBD 152150Z 28007KT CAVOK 12/08 Q1020  
LIBD 152120Z 29006KT 260V340 CAVOK 12/08 Q1020  
LIBD 152050Z 29006KT CAVOK 12/08 Q1021  
LIBD 152020Z 29006KT CAVOK 12/08 Q1021  
LIBD 151950Z 28006KT CAVOK 12/08 Q1021  
LIBD 151920Z 30005KT 280V340 CAVOK 13/08 Q1021  
LIBD 151850Z 28005KT 270V360 CAVOK 12/08 Q1021  
LIBD 151820Z 29006KT CAVOK 11/08 Q1021  
LIBD 151750Z 27004KT CAVOK 12/08 Q1021  
LIBD 151720Z 32003KT CAVOK 12/07 Q1021  
LIBD 151650Z 31005KT 290V360 CAVOK 13/07 Q1021  
LIBD 151620Z 33004KT 290V020 CAVOK 13/07 Q1021  
LIBD 151550Z 36004KT CAVOK 15/07 Q1021  
LIBD 151520Z 36004KT 330V030 CAVOK 15/07 Q1021  
LIBD 151450Z 36004KT CAVOK 16/07 Q1021  
LIBD 151420Z VRB03KT CAVOK 16/08 Q1021  
LIBD 151350Z 36007KT CAVOK 17/07 Q1021  
LIBD 151320Z 03007KT 350V050 9999 FEW020 17/08 Q1021
LIBD 151250Z 03007KT 350V060 9999 FEW020 17/08 Q1021
LIBD 151220Z 03006KT 350V060 9999 FEW020 17/08 Q1022
LIBD 151150Z 36008KT 330V040 9999 FEW020 17/11 Q1022
LIBD 151120Z 36008KT 330V040 9999 FEW020 17/11 Q1022
LIBD 151050Z 35008KT 320V020 9999 FEW015 17/10 Q1022
LIBD 151020Z 35007KT 310V020 9999 FEW015 18/10 Q1022
LIBD 150950Z 34007KT 9999 FEW015 17/11 Q1023
LIBD 150920Z 35007KT 320V030 CAVOK 17/11 Q1023  
LIBD 150850Z 32007KT 290V360 CAVOK 16/12 Q1023  
LIBD 150820Z 32006KT CAVOK 16/13 Q1023  
LIBD 150750Z 31007KT 8000 NSC 15/12 Q1023   
LIBD 150720Z 30007KT 7000 NSC 14/12 Q1023   
LIBD 150650Z 30006KT 7000 NSC 13/11 Q1023